11:23
Airports
Links
Donate
Help keep this website running!
PayPal
Bitcoin
METAR
KBOS 181054Z 24011KT 10SM CLR 10/03 A3021 RMK AO2 SLP230 T01000033
Current Weather Conditions at KBOS
VFR 10:54:00 18-10-17
Automated station
Altimeter:30.21 hg
Temp:10.0°c 50°f
Dew point:3.3°c 37°f
Wind:11 knots, 12.7 mph, 6 m/s, from 240°
Visibility:10.0 statute miles
(CLR) Clear
Past METAR reports
VFR 09:54:00 18-10-17
Automated station
Altimeter:30.21 hg
Temp:9.4°c 48°f
Dew point:3.3°c 37°f
Wind:13 knots, 15 mph, 7 m/s, from 240°
Visibility:10.0 statute miles
(CLR) Clear
KBOS 180954Z 24013KT 10SM CLR 09/03 A3021 RMK AO2 SLP228 T00940033
VFR 08:54:00 18-10-17
Automated station
Altimeter:30.21 hg
Temp:10.0°c 50°f
Dew point:3.9°c 37°f
Wind:12 knots, 13.8 mph, 6 m/s, from 250°
Visibility:10.0 statute miles
25000(FEW) A few
KBOS 180854Z 25012KT 10SM FEW250 10/04 A3021 RMK AO2 SLP228 T01000039 55001
VFR 07:54:00 18-10-17
Automated station
Altimeter:30.19 hg
Temp:9.4°c 48°f
Dew point:3.9°c 37°f
Wind:12 knots, 13.8 mph, 6 m/s, from 230°
Visibility:10.0 statute miles
(CLR) Clear
KBOS 180754Z 23012KT 10SM CLR 09/04 A3019 RMK AO2 SLP223 T00940039
VFR 06:54:00 18-10-17
Automated station
Altimeter:30.20 hg
Temp:9.4°c 48°f
Dew point:4.4°c 39°f
Wind:13 knots, 15 mph, 7 m/s, from 230°
Visibility:10.0 statute miles
(CLR) Clear
KBOS 180654Z 23013KT 10SM CLR 09/04 A3020 RMK AO2 SLP225 T00940044
VFR 05:54:00 18-10-17
Automated station
Altimeter:30.21 hg
Temp:8.9°c 46°f
Dew point:3.9°c 37°f
Wind:14 knots, 16.1 mph, 7 m/s, from 220°
Visibility:10.0 statute miles
(CLR) Clear
KBOS 180554Z 22014KT 10SM CLR 09/04 A3021 RMK AO2 SLP228 T00890039 10106 20083 58010
TAF
KBOS 180811Z 1808/1912 23010KT P6SM SKC FM181500 27010KT P6SM SKC FM182100 21006KT P6SM SKC
Forecast at KBOS
08:00 18-10-17 to 15:00 18-10-17
Wind:10 Knots from 230°
Visibility:6.21 statute miles
SKC Clear
FM 15:00 18-10-17 to 21:00 18-10-17
Wind:10 Knots from 270°
Visibility:6.21 statute miles
SKC Clear
FM 21:00 18-10-17 to 12:00 19-10-17
Wind:6 Knots from 210°
Visibility:6.21 statute miles
SKC Clear